Pelham, New York
Current Conditions -  °F | °C
As of 4:51 AM on Saturday 20 Dec 2014 (Local Time) from KLGA Reporting Station
Overcast Overcast  
Wind Chill: 23°   Ceiling: 2600
Heat Index: 31°   Visibility: 10mi
Dew Point: 21°   Wind: 9mph
Humidity: 67%   Direction: 20°NNE
Pressure: 30.23"   Gusts: NA
Location:  40.91°N, 73.81°W
Report Text: KLGA 200951Z 02008KT 10SM OVC026 M01/M06 A3023 RMK AO2 SLP237 T10061061
Loading
Personal Weather Stations






























Interactive Weather Map New forecast layout! Learn more

10-Day Weather Forecast

Advertisements
Track Severe Weather on mobile